createdAt,value
2018-09-30T00:00:47.482Z,1.10
2018-09-30T00:02:51.118Z,1.10
2018-09-30T00:04:54.034Z,0.90
2018-09-30T00:06:58.448Z,1.13
2018-09-30T00:09:01.344Z,1.87
2018-09-30T00:11:04.216Z,1.30
2018-09-30T00:13:07.616Z,1.00
2018-09-30T00:15:10.580Z,1.50
2018-09-30T00:17:13.452Z,1.00
2018-09-30T00:19:16.353Z,1.30
2018-09-30T00:21:19.244Z,1.10
2018-09-30T00:23:22.970Z,1.33
2018-09-30T00:25:44.760Z,1.43
2018-09-30T00:27:47.652Z,1.10
2018-09-30T00:29:51.673Z,1.00
2018-09-30T00:31:54.731Z,1.70
2018-09-30T00:33:57.600Z,1.60
2018-09-30T00:36:00.500Z,0.97
2018-09-30T00:38:05.003Z,1.20
2018-09-30T00:40:07.883Z,1.10
2018-09-30T00:42:10.756Z,0.90
2018-09-30T00:44:14.071Z,1.20
2018-09-30T00:46:16.947Z,1.20
2018-09-30T00:48:20.489Z,1.00
2018-09-30T00:50:24.232Z,1.00
2018-09-30T00:52:27.118Z,1.00
2018-09-30T00:54:29.976Z,0.80
2018-09-30T00:56:33.089Z,0.98
2018-09-30T00:58:36.068Z,1.10
2018-09-30T01:00:38.932Z,1.00
2018-09-30T01:02:41.817Z,1.30
2018-09-30T01:04:44.692Z,1.00
2018-09-30T01:06:47.686Z,0.80
2018-09-30T01:08:50.571Z,0.97
2018-09-30T01:10:53.453Z,1.30
2018-09-30T01:12:56.340Z,1.00
2018-09-30T01:14:59.220Z,1.17
2018-09-30T01:17:02.097Z,1.17
2018-09-30T01:19:05.193Z,1.73
2018-09-30T01:21:08.084Z,1.07
2018-09-30T01:23:11.722Z,1.20
2018-09-30T01:25:14.653Z,1.13
2018-09-30T01:27:17.522Z,0.70
2018-09-30T01:29:20.417Z,1.47
2018-09-30T01:31:24.109Z,1.60
2018-09-30T01:33:27.001Z,1.23
2018-09-30T01:35:30.668Z,1.10
2018-09-30T01:37:33.641Z,1.25
2018-09-30T01:39:37.021Z,1.13
2018-09-30T01:41:39.921Z,1.10
2018-09-30T01:43:42.827Z,1.00
2018-09-30T01:45:45.709Z,1.43
2018-09-30T01:47:48.605Z,1.33
2018-09-30T01:49:52.772Z,1.30
2018-09-30T01:51:55.678Z,1.07
2018-09-30T01:53:58.622Z,1.43
2018-09-30T01:56:02.045Z,1.13
2018-09-30T01:58:04.973Z,1.03
2018-09-30T02:00:08.608Z,1.23
2018-09-30T02:02:11.481Z,1.57
2018-09-30T02:04:14.389Z,1.67
2018-09-30T02:06:17.274Z,1.37
2018-09-30T02:08:20.917Z,1.03
2018-09-30T02:10:23.862Z,1.03
2018-09-30T02:12:26.757Z,1.27
2018-09-30T02:14:30.829Z,1.43
2018-09-30T02:16:33.869Z,1.20
2018-09-30T02:18:37.505Z,0.93
2018-09-30T02:20:40.451Z,0.93
2018-09-30T02:22:44.119Z,1.80
2018-09-30T02:24:46.999Z,1.20
2018-09-30T02:26:49.898Z,1.10
2018-09-30T02:28:53.577Z,1.20
2018-09-30T02:30:56.444Z,1.33
2018-09-30T02:32:59.343Z,1.47
2018-09-30T02:35:02.217Z,1.30
2018-09-30T02:37:05.102Z,1.50
2018-09-30T02:39:08.082Z,1.50
2018-09-30T02:41:11.508Z,1.30
2018-09-30T02:43:15.142Z,1.30
2018-09-30T02:45:18.491Z,1.73
2018-09-30T02:47:22.568Z,1.10
2018-09-30T02:49:25.865Z,1.83
2018-09-30T02:51:29.562Z,1.40
2018-09-30T02:53:32.988Z,1.40
2018-09-30T02:55:36.733Z,1.67
2018-09-30T02:57:39.764Z,2.90
2018-09-30T02:59:43.406Z,1.37
2018-09-30T03:01:46.297Z,1.40
2018-09-30T03:03:49.166Z,1.00
2018-09-30T03:05:52.042Z,0.97
2018-09-30T03:08:15.635Z,0.90
2018-09-30T03:10:18.498Z,1.13
2018-09-30T03:12:21.416Z,1.20
2018-09-30T03:14:25.101Z,1.17
2018-09-30T03:16:27.973Z,1.03
2018-09-30T03:18:30.845Z,1.20
2018-09-30T03:20:33.733Z,1.47
2018-09-30T03:22:36.605Z,1.13
2018-09-30T03:24:39.489Z,0.90
2018-09-30T03:26:42.426Z,0.90
2018-09-30T03:28:45.576Z,1.40
2018-09-30T03:30:48.561Z,1.20
2018-09-30T03:32:51.449Z,1.47
2018-09-30T03:34:54.713Z,0.93
2018-09-30T03:36:57.611Z,1.17
2018-09-30T03:39:00.485Z,1.17
2018-09-30T03:41:03.501Z,1.47
2018-09-30T03:43:07.166Z,1.43
2018-09-30T03:45:10.037Z,1.00
2018-09-30T03:47:12.933Z,1.27
2018-09-30T03:49:15.829Z,0.90
2018-09-30T03:51:18.710Z,1.37
2018-09-30T03:53:22.381Z,1.37
2018-09-30T03:55:25.282Z,1.43
2018-09-30T03:57:28.170Z,1.20
2018-09-30T03:59:31.833Z,1.40
2018-09-30T04:01:34.837Z,1.00
2018-09-30T04:03:37.725Z,1.50
2018-09-30T04:05:42.282Z,1.50
2018-09-30T04:07:45.182Z,1.60
2018-09-30T04:09:48.981Z,1.50
2018-09-30T04:11:53.158Z,0.93
2018-09-30T04:13:56.844Z,1.60
2018-09-30T04:15:59.732Z,1.17
2018-09-30T04:18:02.624Z,0.90
2018-09-30T04:20:07.024Z,1.03
2018-09-30T04:22:09.909Z,1.00
2018-09-30T04:24:13.603Z,0.90
2018-09-30T04:26:16.482Z,1.20
2018-09-30T04:28:20.101Z,1.17
2018-09-30T04:30:23.765Z,1.40
2018-09-30T04:32:26.645Z,1.23
2018-09-30T04:34:29.536Z,1.23
2018-09-30T04:36:32.617Z,1.12
2018-09-30T04:38:35.609Z,1.00
2018-09-30T04:40:38.508Z,1.20
2018-09-30T04:42:42.185Z,1.60
2018-09-30T04:44:45.077Z,1.20
2018-09-30T04:46:49.281Z,1.47
2018-09-30T04:48:52.941Z,0.93
2018-09-30T04:50:55.825Z,1.57
2018-09-30T04:52:58.840Z,1.10
2018-09-30T04:55:01.721Z,1.60
2018-09-30T04:57:04.617Z,1.37
2018-09-30T04:59:08.304Z,1.17
2018-09-30T05:01:11.258Z,1.23
2018-09-30T05:03:14.131Z,1.10
2018-09-30T05:05:17.453Z,1.20
2018-09-30T05:07:20.333Z,1.37
2018-09-30T05:09:23.213Z,1.40
2018-09-30T05:11:26.202Z,1.00
2018-09-30T05:13:29.085Z,1.10
2018-09-30T05:15:31.968Z,1.00
2018-09-30T05:17:34.857Z,1.67
2018-09-30T05:19:38.508Z,1.10
2018-09-30T05:21:41.419Z,1.20
2018-09-30T05:23:44.289Z,1.70
2018-09-30T05:25:47.207Z,1.37
2018-09-30T05:27:51.603Z,1.35
2018-09-30T05:29:55.257Z,1.40
2018-09-30T05:31:58.154Z,1.15
2018-09-30T05:34:01.078Z,1.45
2018-09-30T05:36:03.970Z,1.83
2018-09-30T05:38:06.869Z,1.20
2018-09-30T05:40:09.763Z,1.87
2018-09-30T05:42:12.638Z,1.48
2018-09-30T05:44:15.551Z,1.60
2018-09-30T05:46:18.487Z,1.77
2018-09-30T05:48:23.057Z,1.57
2018-09-30T05:50:26.157Z,1.50
2018-09-30T05:52:29.797Z,1.65
2018-09-30T05:54:32.697Z,1.80
2018-09-30T05:56:35.636Z,1.92
2018-09-30T05:58:38.507Z,1.42
2018-09-30T06:00:42.151Z,2.60
2018-09-30T06:02:45.089Z,2.60
2018-09-30T06:04:47.949Z,2.00
2018-09-30T06:06:50.909Z,2.00
2018-09-30T06:08:53.845Z,1.98
2018-09-30T06:10:56.697Z,1.70
2018-09-30T06:12:59.709Z,2.30
2018-09-30T06:15:03.357Z,1.92
2018-09-30T06:17:06.238Z,1.83
2018-09-30T06:19:09.977Z,1.90
2018-09-30T06:21:12.841Z,1.67
2018-09-30T06:23:15.773Z,1.80
2018-09-30T06:25:18.678Z,1.83
2018-09-30T06:27:21.570Z,2.60
2018-09-30T06:29:24.479Z,2.22
2018-09-30T06:31:27.396Z,2.37
2018-09-30T06:33:31.006Z,2.60
2018-09-30T06:35:33.941Z,2.43
2018-09-30T06:37:38.342Z,2.43
2018-09-30T06:39:41.316Z,1.87
2018-09-30T06:41:44.281Z,2.20
2018-09-30T06:43:47.198Z,1.93
2018-09-30T06:45:50.906Z,2.05
2018-09-30T06:47:54.613Z,2.10
2018-09-30T06:49:58.272Z,2.15
2018-09-30T06:52:01.141Z,2.92
2018-09-30T06:54:04.162Z,2.08
2018-09-30T06:56:07.853Z,1.80
2018-09-30T06:58:10.729Z,2.50
2018-09-30T07:00:13.657Z,1.77
2018-09-30T07:02:17.746Z,2.10
2018-09-30T07:04:21.522Z,2.08
2018-09-30T07:06:24.395Z,1.53
2018-09-30T07:08:27.285Z,1.58
2018-09-30T07:10:30.382Z,1.60
2018-09-30T07:12:34.074Z,1.45
2018-09-30T07:14:36.966Z,2.35
2018-09-30T07:16:40.648Z,2.05
2018-09-30T07:18:43.557Z,1.52
2018-09-30T07:20:47.193Z,1.90
2018-09-30T07:22:50.940Z,1.90
2018-09-30T07:24:53.806Z,1.80
2018-09-30T07:26:56.721Z,1.85
2018-09-30T07:28:59.640Z,1.20
2018-09-30T07:31:02.512Z,2.00
2018-09-30T07:33:05.410Z,1.85
2018-09-30T07:35:08.297Z,1.90
2018-09-30T07:37:11.181Z,1.40
2018-09-30T07:39:14.082Z,2.07
2018-09-30T07:41:16.963Z,1.70
2018-09-30T07:43:19.844Z,1.83
2018-09-30T07:45:22.772Z,1.70
2018-09-30T07:47:26.394Z,1.47
2018-09-30T07:49:29.274Z,1.90
2018-09-30T07:51:32.805Z,1.77
2018-09-30T07:53:35.708Z,1.80
2018-09-30T07:55:38.567Z,2.03
2018-09-30T07:57:41.625Z,1.27
2018-09-30T07:59:44.501Z,1.87
2018-09-30T08:01:47.509Z,1.20
2018-09-30T08:03:50.414Z,1.60
2018-09-30T08:05:53.377Z,1.70
2018-09-30T08:07:56.277Z,1.73
2018-09-30T08:10:00.482Z,1.83
2018-09-30T08:12:03.787Z,1.57
2018-09-30T08:14:07.469Z,1.53
2018-09-30T08:16:11.114Z,1.40
2018-09-30T08:18:14.750Z,1.87
2018-09-30T08:20:17.655Z,1.23
2018-09-30T08:22:21.337Z,1.67
2018-09-30T08:24:24.256Z,2.13
2018-09-30T08:26:27.201Z,1.37
2018-09-30T08:28:30.081Z,1.50
2018-09-30T08:30:32.988Z,1.70
2018-09-30T08:32:35.898Z,1.37
2018-09-30T08:34:39.381Z,1.43
2018-09-30T08:36:42.422Z,1.40
2018-09-30T08:38:45.300Z,1.43
2018-09-30T08:40:48.338Z,1.50
2018-09-30T08:42:51.327Z,1.40
2018-09-30T08:44:54.201Z,1.50
2018-09-30T08:46:57.077Z,1.40
2018-09-30T08:49:00.144Z,1.40
2018-09-30T08:51:03.816Z,1.23
2018-09-30T08:53:06.763Z,1.60
2018-09-30T08:55:09.681Z,1.63
2018-09-30T08:57:12.557Z,1.40
2018-09-30T08:59:15.434Z,1.10
2018-09-30T09:01:18.446Z,1.50
2018-09-30T09:03:22.081Z,1.70
2018-09-30T09:05:24.961Z,1.37
2018-09-30T09:07:27.939Z,1.60
2018-09-30T09:09:30.806Z,1.80
2018-09-30T09:11:34.489Z,1.33
2018-09-30T09:13:38.133Z,1.07
2018-09-30T09:15:41.301Z,1.50
2018-09-30T09:17:44.217Z,1.07
2018-09-30T09:19:47.110Z,1.83
2018-09-30T09:21:51.017Z,1.70
2018-09-30T09:23:53.946Z,1.57
2018-09-30T09:25:57.589Z,2.03
2018-09-30T09:28:00.530Z,2.50
2018-09-30T09:30:03.377Z,1.50
2018-09-30T09:32:07.453Z,1.67
2018-09-30T09:34:10.345Z,2.30
2018-09-30T09:36:13.229Z,1.33
2018-09-30T09:38:16.155Z,1.70
2018-09-30T09:40:19.790Z,1.27
2018-09-30T09:42:23.546Z,1.70
2018-09-30T09:44:27.196Z,1.70
2018-09-30T09:46:30.596Z,1.77
2018-09-30T09:48:33.886Z,1.50
2018-09-30T09:50:38.298Z,1.30
2018-09-30T09:52:41.285Z,1.63
2018-09-30T09:54:44.877Z,1.30
2018-09-30T09:56:47.757Z,1.73
2018-09-30T09:58:50.679Z,1.10
2018-09-30T10:00:53.990Z,1.53
2018-09-30T10:02:57.696Z,1.83
2018-09-30T10:05:00.657Z,1.60
2018-09-30T10:07:03.514Z,1.70
2018-09-30T10:09:07.007Z,1.47
2018-09-30T10:11:09.864Z,1.40
2018-09-30T10:13:12.851Z,1.60
2018-09-30T10:15:15.751Z,1.67
2018-09-30T10:17:18.685Z,1.30
2018-09-30T10:19:21.601Z,2.60
2018-09-30T10:21:24.489Z,1.47
2018-09-30T10:23:27.469Z,1.73
2018-09-30T10:25:30.351Z,2.10
2018-09-30T10:27:33.301Z,1.97
2018-09-30T10:29:36.165Z,1.57
2018-09-30T10:31:39.066Z,1.90
2018-09-30T10:33:41.965Z,2.07
2018-09-30T10:35:45.731Z,1.63
2018-09-30T10:37:48.632Z,1.60
2018-09-30T10:39:51.510Z,1.50
2018-09-30T10:41:54.410Z,1.90
2018-09-30T10:43:57.327Z,1.90
2018-09-30T10:46:00.984Z,1.67
2018-09-30T10:48:03.885Z,1.53
2018-09-30T10:50:07.151Z,1.70
2018-09-30T10:52:10.021Z,1.90
2018-09-30T10:54:12.926Z,1.80
2018-09-30T10:56:15.901Z,1.63
2018-09-30T10:58:18.788Z,2.10
2018-09-30T11:00:21.663Z,1.93
2018-09-30T11:02:24.669Z,2.70
2018-09-30T11:04:27.582Z,2.10
2018-09-30T11:06:31.245Z,2.13
2018-09-30T11:08:34.142Z,2.13
2018-09-30T11:10:37.803Z,2.20
2018-09-30T11:12:40.685Z,1.90
2018-09-30T11:14:43.665Z,1.60
2018-09-30T11:16:46.562Z,2.50
2018-09-30T11:18:49.457Z,2.50
2018-09-30T11:20:52.724Z,2.40
2018-09-30T11:22:55.599Z,2.30
2018-09-30T11:24:58.617Z,2.37
2018-09-30T11:27:01.489Z,2.30
2018-09-30T11:29:04.422Z,2.33
2018-09-30T11:31:07.337Z,2.50
2018-09-30T11:33:10.213Z,2.50
2018-09-30T11:35:13.090Z,2.40
2018-09-30T11:37:16.046Z,2.53
2018-09-30T11:39:19.133Z,2.60
2018-09-30T11:41:22.458Z,2.63
2018-09-30T11:43:25.316Z,2.77
2018-09-30T11:45:28.193Z,2.40
2018-09-30T11:47:31.093Z,2.30
2018-09-30T11:49:33.961Z,2.23
2018-09-30T11:51:37.402Z,2.60
2018-09-30T11:53:41.065Z,2.67
2018-09-30T11:55:43.956Z,2.87
2018-09-30T11:57:46.845Z,2.60
2018-09-30T11:59:49.769Z,2.43
2018-09-30T12:01:53.397Z,2.50
2018-09-30T12:03:56.433Z,2.40
2018-09-30T12:06:00.121Z,2.70
2018-09-30T12:08:04.563Z,2.70
2018-09-30T12:10:07.417Z,2.27
2018-09-30T12:12:10.389Z,2.70
2018-09-30T12:14:13.389Z,2.43
2018-09-30T12:16:17.070Z,2.43
2018-09-30T12:18:19.962Z,3.07
2018-09-30T12:20:23.615Z,2.50
2018-09-30T12:22:26.632Z,2.80
2018-09-30T12:24:29.773Z,2.73
2018-09-30T12:26:34.139Z,2.60
2018-09-30T12:28:37.021Z,2.70
2018-09-30T12:30:40.309Z,3.50
2018-09-30T12:32:43.297Z,2.20
2018-09-30T12:34:46.984Z,2.40
2018-09-30T12:36:49.861Z,3.50
2018-09-30T12:38:52.754Z,3.00
2018-09-30T12:40:57.162Z,2.33
2018-09-30T12:43:00.058Z,2.70
2018-09-30T12:45:03.335Z,2.90
2018-09-30T12:47:06.226Z,2.77
2018-09-30T12:49:09.889Z,2.93
2018-09-30T12:51:12.822Z,2.50
2018-09-30T12:53:17.050Z,2.77
2018-09-30T12:55:20.669Z,2.20
2018-09-30T12:57:23.567Z,2.87
2018-09-30T12:59:26.437Z,2.80
2018-09-30T13:01:29.360Z,2.67
2018-09-30T13:03:33.874Z,2.60
2018-09-30T13:05:36.926Z,3.27
2018-09-30T13:07:40.826Z,3.20
2018-09-30T13:09:43.717Z,3.30
2018-09-30T13:11:46.592Z,2.97
2018-09-30T13:13:49.976Z,2.60
2018-09-30T13:15:52.893Z,2.33
2018-09-30T13:17:55.769Z,2.10
2018-09-30T13:19:58.697Z,2.40
2018-09-30T13:22:02.871Z,2.50
2018-09-30T13:24:05.866Z,2.40
2018-09-30T13:26:08.841Z,2.90
2018-09-30T13:28:11.716Z,2.90
2018-09-30T13:30:14.584Z,2.77
2018-09-30T13:32:17.683Z,3.07
2018-09-30T13:34:22.074Z,3.43
2018-09-30T13:36:25.058Z,3.30
2018-09-30T13:38:27.982Z,3.40
2018-09-30T13:40:31.744Z,4.03
2018-09-30T13:42:34.518Z,3.03
2018-09-30T13:44:37.840Z,3.50
2018-09-30T13:46:40.706Z,3.73
2018-09-30T13:48:43.592Z,2.77
2018-09-30T13:50:46.504Z,3.40
2018-09-30T13:52:50.161Z,3.90
2018-09-30T13:54:53.060Z,3.30
2018-09-30T13:56:55.959Z,3.43
2018-09-30T13:59:00.043Z,3.90
2018-09-30T14:01:03.133Z,3.43
2018-09-30T14:03:06.026Z,3.90
2018-09-30T14:05:10.430Z,3.10
2018-09-30T14:07:14.963Z,4.33
2018-09-30T14:09:18.613Z,3.10
2018-09-30T14:11:21.485Z,3.60
2018-09-30T14:13:24.419Z,4.23
2018-09-30T14:15:27.405Z,4.07
2018-09-30T14:17:31.345Z,4.20
2018-09-30T14:19:34.637Z,4.50
2018-09-30T14:21:37.521Z,4.03
2018-09-30T14:23:40.560Z,3.70
2018-09-30T14:25:44.964Z,4.00
2018-09-30T14:27:47.908Z,3.37
2018-09-30T14:29:51.146Z,3.47
2018-09-30T14:31:54.079Z,4.07
2018-09-30T14:33:56.950Z,3.40
2018-09-30T14:35:59.924Z,2.97
2018-09-30T14:38:02.866Z,3.33
2018-09-30T14:40:05.964Z,4.27
2018-09-30T14:42:08.942Z,3.27
2018-09-30T14:44:12.601Z,2.90
2018-09-30T14:46:15.526Z,3.53
2018-09-30T14:48:20.014Z,2.83
2018-09-30T14:50:22.825Z,3.33
2018-09-30T14:52:26.525Z,3.63
2018-09-30T14:54:31.123Z,3.97
2018-09-30T14:56:33.984Z,3.23
2018-09-30T14:58:36.989Z,3.00
2018-09-30T15:00:39.941Z,2.80
2018-09-30T15:02:42.848Z,2.67
2018-09-30T15:04:45.754Z,3.20
2018-09-30T15:06:48.724Z,2.55
2018-09-30T15:08:51.630Z,2.87
2018-09-30T15:10:55.324Z,3.87
2018-09-30T15:12:58.981Z,3.37
2018-09-30T15:15:02.253Z,3.27
2018-09-30T15:17:05.185Z,1.83
2018-09-30T15:19:08.066Z,2.80
2018-09-30T15:21:10.937Z,2.67
2018-09-30T15:23:13.846Z,2.90
2018-09-30T15:25:17.525Z,3.30
2018-09-30T15:27:20.401Z,2.33
2018-09-30T15:29:23.293Z,2.50
2018-09-30T15:31:27.689Z,2.20
2018-09-30T15:33:30.686Z,2.17
2018-09-30T15:35:33.567Z,2.53
2018-09-30T15:37:36.441Z,2.10
2018-09-30T15:39:39.329Z,2.40
2018-09-30T15:41:42.205Z,2.30
2018-09-30T15:43:46.009Z,2.80
2018-09-30T15:45:48.893Z,2.47
2018-09-30T15:47:51.822Z,2.77
2018-09-30T15:49:54.708Z,2.30
2018-09-30T15:51:57.684Z,2.70
2018-09-30T15:54:00.637Z,2.77
2018-09-30T15:56:04.796Z,2.80
2018-09-30T15:58:07.711Z,2.10
2018-09-30T16:00:10.589Z,2.43
2018-09-30T16:02:13.465Z,2.33
2018-09-30T16:04:16.363Z,3.07
2018-09-30T16:06:19.233Z,2.37
2018-09-30T16:08:22.124Z,2.60
2018-09-30T16:10:25.003Z,2.90
2018-09-30T16:12:29.429Z,2.63
2018-09-30T16:14:33.090Z,2.23
2018-09-30T16:16:36.829Z,2.47
2018-09-30T16:18:41.842Z,2.90
2018-09-30T16:20:44.731Z,2.10
2018-09-30T16:22:47.609Z,3.40
2018-09-30T16:24:51.997Z,4.93
2018-09-30T16:26:54.925Z,2.97
2018-09-30T16:28:59.417Z,2.73
2018-09-30T16:31:03.370Z,2.50
2018-09-30T16:33:06.448Z,2.53
2018-09-30T16:35:09.959Z,2.60
2018-09-30T16:37:12.784Z,1.90
2018-09-30T16:39:15.674Z,2.23
2018-09-30T16:41:19.322Z,2.50
2018-09-30T16:43:22.353Z,2.30
2018-09-30T16:45:26.734Z,2.43
2018-09-30T16:47:29.649Z,1.87
2018-09-30T16:49:34.129Z,1.90
2018-09-30T16:51:37.009Z,2.10
2018-09-30T16:53:39.893Z,1.70
2018-09-30T16:55:43.585Z,2.07
2018-09-30T16:57:46.473Z,1.60
2018-09-30T16:59:49.334Z,2.30
2018-09-30T17:01:52.253Z,1.80
2018-09-30T17:03:55.141Z,2.50
2018-09-30T17:05:58.017Z,1.60
2018-09-30T17:08:01.013Z,1.87
2018-09-30T17:10:04.017Z,2.43
2018-09-30T17:12:07.662Z,1.70
2018-09-30T17:14:10.569Z,2.20
2018-09-30T17:16:13.447Z,2.37
2018-09-30T17:18:16.384Z,2.00
2018-09-30T17:20:19.286Z,2.50
2018-09-30T17:22:22.191Z,2.17
2018-09-30T17:24:25.078Z,1.77
2018-09-30T17:26:29.611Z,1.60
2018-09-30T17:28:32.515Z,1.87
2018-09-30T17:30:36.148Z,2.47
2018-09-30T17:32:39.164Z,2.30
2018-09-30T17:34:42.029Z,1.90
2018-09-30T17:36:45.782Z,1.97
2018-09-30T17:38:49.428Z,1.93
2018-09-30T17:40:52.510Z,2.47
2018-09-30T17:42:55.384Z,3.33
2018-09-30T17:44:58.396Z,2.57
2018-09-30T17:47:02.784Z,2.40
2018-09-30T17:49:05.677Z,2.70
2018-09-30T17:51:09.188Z,2.50
2018-09-30T17:53:12.767Z,2.37
2018-09-30T17:55:15.669Z,2.27
2018-09-30T17:57:18.812Z,3.10
2018-09-30T17:59:22.045Z,1.93
2018-09-30T18:01:26.477Z,3.27
2018-09-30T18:03:30.261Z,4.00
2018-09-30T18:05:33.136Z,4.70
2018-09-30T18:07:36.121Z,7.60
2018-09-30T18:09:39.026Z,5.77
2018-09-30T18:11:41.965Z,4.32
2018-09-30T18:13:44.841Z,2.97
2018-09-30T18:15:47.756Z,2.10
2018-09-30T18:17:52.188Z,2.50
2018-09-30T18:19:55.856Z,2.00
2018-09-30T18:21:58.946Z,2.70
2018-09-30T18:24:03.349Z,2.43
2018-09-30T18:26:06.229Z,2.87
2018-09-30T18:28:09.226Z,2.70
2018-09-30T18:30:12.150Z,2.77
2018-09-30T18:32:15.783Z,4.60
2018-09-30T18:34:18.682Z,5.43
2018-09-30T18:36:21.577Z,5.40
2018-09-30T18:38:24.454Z,3.40
2018-09-30T18:40:27.437Z,3.40
2018-09-30T18:42:30.318Z,2.57
2018-09-30T18:44:33.234Z,2.63
2018-09-30T18:46:37.584Z,3.83
2018-09-30T18:48:41.173Z,4.33
2018-09-30T18:50:44.452Z,5.77
2018-09-30T18:52:47.372Z,7.00
2018-09-30T18:54:50.290Z,6.87
2018-09-30T18:56:53.283Z,7.10
2018-09-30T18:58:57.611Z,7.93
2018-09-30T19:01:00.502Z,6.27
2018-09-30T19:03:03.400Z,6.30
2018-09-30T19:05:06.900Z,7.73
2018-09-30T19:07:10.151Z,6.50
2018-09-30T19:09:13.100Z,5.80
2018-09-30T19:11:16.790Z,5.70
2018-09-30T19:13:20.445Z,5.37
2018-09-30T19:15:23.886Z,6.10
2018-09-30T19:17:27.565Z,4.77
2018-09-30T19:19:30.449Z,5.40
2018-09-30T19:21:33.602Z,4.60
2018-09-30T19:23:36.532Z,4.40
2018-09-30T19:25:39.413Z,4.77
2018-09-30T19:27:42.397Z,4.40
2018-09-30T19:29:45.486Z,4.20
2018-09-30T19:31:49.871Z,3.50
2018-09-30T19:33:52.753Z,3.40
2018-09-30T19:35:55.661Z,3.10
2018-09-30T19:37:58.679Z,4.17
2018-09-30T19:40:02.345Z,3.20
2018-09-30T19:42:05.464Z,2.93
2018-09-30T19:44:09.093Z,2.50
2018-09-30T19:46:11.969Z,3.67
2018-09-30T19:48:14.915Z,3.10
2018-09-30T19:50:17.773Z,3.07
2018-09-30T19:52:20.663Z,3.10
2018-09-30T19:54:23.590Z,3.13
2018-09-30T19:56:26.469Z,2.80
2018-09-30T19:58:29.366Z,2.37
2018-09-30T20:00:32.373Z,2.67
2018-09-30T20:02:35.260Z,2.93
2018-09-30T20:04:39.660Z,2.70
2018-09-30T20:06:42.593Z,3.03
2018-09-30T20:08:45.538Z,3.40
2018-09-30T20:10:49.932Z,3.10
2018-09-30T20:12:52.837Z,3.40
2018-09-30T20:14:55.716Z,3.53
2018-09-30T20:16:58.701Z,4.77
2018-09-30T20:19:01.608Z,3.37
2018-09-30T20:21:04.687Z,3.83
2018-09-30T20:23:08.334Z,2.87
2018-09-30T20:25:11.445Z,3.60
2018-09-30T20:27:14.327Z,3.07
2018-09-30T20:29:18.335Z,2.78
2018-09-30T20:31:21.262Z,2.95
2018-09-30T20:33:24.157Z,2.80
2018-09-30T20:35:27.043Z,2.90
2018-09-30T20:37:30.585Z,2.70
2018-09-30T20:39:33.453Z,3.40
2018-09-30T20:41:36.334Z,4.13
2018-09-30T20:43:39.281Z,3.60
2018-09-30T20:45:42.169Z,3.20
2018-09-30T20:47:45.049Z,3.53
2018-09-30T20:49:47.969Z,3.40
2018-09-30T20:51:50.841Z,3.20
2018-09-30T20:53:53.765Z,3.17
2018-09-30T20:55:57.536Z,3.90
2018-09-30T20:58:00.412Z,3.23
2018-09-30T21:00:04.801Z,2.67
2018-09-30T21:02:07.805Z,3.50
2018-09-30T21:04:10.737Z,3.07
2018-09-30T21:06:13.685Z,3.20
2018-09-30T21:08:17.888Z,3.20
2018-09-30T21:10:21.384Z,3.60
2018-09-30T21:12:24.261Z,3.63
2018-09-30T21:14:27.939Z,3.50
2018-09-30T21:16:31.697Z,2.90
2018-09-30T21:18:35.388Z,2.87
2018-09-30T21:20:39.055Z,4.20
2018-09-30T21:22:41.928Z,3.07
2018-09-30T21:24:44.820Z,2.33
2018-09-30T21:26:47.843Z,2.97
2018-09-30T21:28:51.511Z,3.50
2018-09-30T21:30:55.688Z,2.80
2018-09-30T21:32:58.618Z,2.83
2018-09-30T21:35:02.305Z,2.67
2018-09-30T21:37:07.121Z,2.90
2018-09-30T21:39:10.006Z,2.93
2018-09-30T21:41:12.885Z,3.50
2018-09-30T21:43:15.869Z,3.33
2018-09-30T21:45:18.818Z,2.50
2018-09-30T21:47:21.818Z,2.50
2018-09-30T21:49:24.690Z,2.50
2018-09-30T21:51:27.700Z,2.30
2018-09-30T21:53:31.309Z,3.30
2018-09-30T21:55:34.181Z,2.70
2018-09-30T21:57:37.086Z,2.20
2018-09-30T21:59:39.965Z,2.87
2018-09-30T22:01:43.666Z,2.17
2018-09-30T22:03:46.505Z,2.53
2018-09-30T22:05:50.220Z,2.63
2018-09-30T22:07:53.203Z,2.50
2018-09-30T22:09:56.285Z,2.33
2018-09-30T22:11:59.164Z,2.57
2018-09-30T22:14:02.175Z,3.07
2018-09-30T22:16:05.160Z,2.00
2018-09-30T22:18:09.687Z,2.60
2018-09-30T22:20:13.422Z,2.20
2018-09-30T22:22:16.466Z,2.13
2018-09-30T22:24:19.424Z,2.55
2018-09-30T22:26:22.298Z,2.63
2018-09-30T22:28:25.201Z,3.20
2018-09-30T22:30:29.168Z,2.40
2018-09-30T22:32:32.051Z,2.90
2018-09-30T22:34:34.974Z,2.50
2018-09-30T22:36:38.619Z,1.80
2018-09-30T22:38:41.496Z,2.70
2018-09-30T22:40:44.414Z,2.70
2018-09-30T22:42:47.394Z,1.90
2018-09-30T22:44:50.310Z,1.90
2018-09-30T22:46:53.982Z,2.30
2018-09-30T22:48:57.672Z,2.40
2018-09-30T22:51:00.571Z,2.77
2018-09-30T22:53:04.681Z,2.50
2018-09-30T22:55:07.550Z,2.10
2018-09-30T22:57:11.196Z,2.60
2018-09-30T22:59:14.158Z,2.90
2018-09-30T23:01:17.062Z,2.70
2018-09-30T23:03:19.953Z,2.50
2018-09-30T23:05:22.856Z,3.00
2018-09-30T23:07:25.729Z,2.63
2018-09-30T23:09:28.609Z,2.03
2018-09-30T23:11:31.600Z,2.73
2018-09-30T23:13:34.481Z,2.40
2018-09-30T23:15:37.360Z,2.40
2018-09-30T23:17:40.298Z,2.40
2018-09-30T23:19:44.036Z,2.33
2018-09-30T23:21:46.906Z,2.53
2018-09-30T23:23:49.917Z,2.03
2018-09-30T23:25:52.801Z,3.00
2018-09-30T23:27:57.494Z,2.28
2018-09-30T23:30:01.333Z,1.80
2018-09-30T23:32:04.199Z,2.00
2018-09-30T23:34:07.069Z,2.57
2018-09-30T23:36:10.818Z,2.77
2018-09-30T23:38:14.465Z,2.40
2018-09-30T23:40:17.357Z,1.63
2018-09-30T23:42:20.280Z,2.30
2018-09-30T23:44:23.962Z,2.33
2018-09-30T23:46:26.838Z,2.63
2018-09-30T23:48:30.545Z,2.43
2018-09-30T23:50:33.389Z,2.17
2018-09-30T23:52:36.268Z,2.10
2018-09-30T23:54:39.311Z,1.80
2018-09-30T23:56:42.959Z,2.20
2018-09-30T23:58:45.841Z,2.13
